createdAt,value
2022-09-26T00:01:42.959Z,27.40
2022-09-26T00:04:22.978Z,28.00
2022-09-26T00:06:53.932Z,26.90
2022-09-26T00:09:24.865Z,27.60
2022-09-26T00:11:53.409Z,27.30
2022-09-26T00:14:24.890Z,29.20
2022-09-26T00:16:53.873Z,28.90
2022-09-26T00:19:22.904Z,31.30
2022-09-26T00:21:51.232Z,30.90
2022-09-26T00:24:19.769Z,31.70
2022-09-26T00:26:47.908Z,33.10
2022-09-26T00:29:16.409Z,31.90
2022-09-26T00:31:46.266Z,32.40
2022-09-26T00:34:16.966Z,32.50
2022-09-26T00:36:45.231Z,32.10
2022-09-26T00:39:15.609Z,30.30
2022-09-26T00:41:45.074Z,32.00
2022-09-26T00:44:54.809Z,31.10
2022-09-26T00:47:34.647Z,32.50
2022-09-26T00:50:08.378Z,31.90
2022-09-26T00:52:49.209Z,33.30
2022-09-26T00:55:21.963Z,33.00
2022-09-26T00:57:56.732Z,32.70
2022-09-26T01:00:25.161Z,36.00
2022-09-26T01:02:54.270Z,35.20
2022-09-26T01:05:24.249Z,36.10
2022-09-26T01:07:55.138Z,34.80
2022-09-26T01:10:24.829Z,34.20
2022-09-26T01:12:54.111Z,34.70
2022-09-26T01:15:26.214Z,36.80
2022-09-26T01:17:56.779Z,37.30
2022-09-26T01:20:36.672Z,35.80
2022-09-26T01:23:40.364Z,34.50
2022-09-26T01:26:33.299Z,36.30
2022-09-26T01:29:29.351Z,36.10
2022-09-26T01:32:36.995Z,37.60
2022-09-26T01:35:21.324Z,34.10
2022-09-26T01:38:07.918Z,34.10
2022-09-26T01:40:57.384Z,37.50
2022-09-26T01:43:40.296Z,39.40
2022-09-26T01:46:36.239Z,39.20
2022-09-26T01:49:20.969Z,41.20
2022-09-26T01:51:52.088Z,40.00
2022-09-26T01:54:24.901Z,38.90
2022-09-26T01:56:57.581Z,39.90
2022-09-26T01:59:42.289Z,42.30
2022-09-26T02:02:19.606Z,40.70
2022-09-26T02:04:53.616Z,42.90
2022-09-26T02:07:43.936Z,43.00
2022-09-26T02:10:22.099Z,40.40
2022-09-26T02:12:59.691Z,41.90
2022-09-26T02:15:34.830Z,40.80
2022-09-26T02:18:17.469Z,41.10
2022-09-26T02:20:58.437Z,40.00
2022-09-26T02:23:26.524Z,41.50
2022-09-26T02:25:55.227Z,44.10
2022-09-26T02:28:23.485Z,40.00
2022-09-26T02:30:54.581Z,43.20
2022-09-26T02:33:24.116Z,43.80
2022-09-26T02:35:55.365Z,44.90
2022-09-26T02:38:31.933Z,45.40
2022-09-26T02:41:22.623Z,42.60
2022-09-26T02:44:11.835Z,44.80
2022-09-26T02:47:00.219Z,40.20
2022-09-26T02:49:34.360Z,42.70
2022-09-26T02:52:36.092Z,42.20
2022-09-26T02:55:26.842Z,40.40
2022-09-26T02:58:04.283Z,40.40
2022-09-26T03:01:11.030Z,42.20
2022-09-26T03:04:15.050Z,42.40
2022-09-26T03:06:46.883Z,39.30
2022-09-26T03:09:18.077Z,39.80
2022-09-26T03:11:48.236Z,41.00
2022-09-26T03:14:18.262Z,41.10
2022-09-26T03:16:49.798Z,38.50
2022-09-26T03:19:36.448Z,34.70
2022-09-26T03:22:04.739Z,37.70
2022-09-26T03:24:36.423Z,37.90
2022-09-26T03:27:05.993Z,38.30
2022-09-26T03:29:36.804Z,39.80
2022-09-26T03:32:06.908Z,44.40
2022-09-26T03:34:35.230Z,46.20
2022-09-26T03:37:03.249Z,44.20
2022-09-26T03:39:31.388Z,41.80
2022-09-26T03:42:02.887Z,47.30
2022-09-26T03:44:32.521Z,42.90
2022-09-26T03:47:19.457Z,42.00
2022-09-26T03:49:51.701Z,42.20
2022-09-26T03:52:20.165Z,39.40
2022-09-26T03:54:49.827Z,40.00
2022-09-26T03:57:18.163Z,40.50
2022-09-26T03:59:55.811Z,42.10
2022-09-26T04:02:25.330Z,41.00
2022-09-26T04:04:59.834Z,41.00
2022-09-26T04:07:27.942Z,41.60
2022-09-26T04:09:56.022Z,39.00
2022-09-26T04:12:24.011Z,39.30
2022-09-26T04:14:54.050Z,40.50
2022-09-26T04:17:22.268Z,42.30
2022-09-26T04:19:50.478Z,41.90
2022-09-26T04:22:18.731Z,38.70
2022-09-26T04:24:46.873Z,40.80
2022-09-26T04:27:15.419Z,41.10
2022-09-26T04:29:45.323Z,42.20
2022-09-26T04:32:19.756Z,40.60
2022-09-26T04:35:19.935Z,38.80
2022-09-26T04:37:50.798Z,38.70
2022-09-26T04:40:19.187Z,40.00
2022-09-26T04:42:59.973Z,40.90
2022-09-26T04:45:28.271Z,41.70
2022-09-26T04:47:57.055Z,39.30
2022-09-26T04:50:29.097Z,40.40
2022-09-26T04:53:07.120Z,40.30
2022-09-26T04:55:39.223Z,39.90
2022-09-26T04:58:07.350Z,40.90
2022-09-26T05:00:35.748Z,43.20
2022-09-26T05:03:05.407Z,39.80
2022-09-26T05:05:33.929Z,42.70
2022-09-26T05:08:02.386Z,41.20
2022-09-26T05:10:30.535Z,38.50
2022-09-26T05:13:03.578Z,38.20
2022-09-26T05:15:32.309Z,37.40
2022-09-26T05:18:00.789Z,40.30
2022-09-26T05:20:31.920Z,37.30
2022-09-26T05:23:07.437Z,38.20
2022-09-26T05:25:57.648Z,38.40
2022-09-26T05:28:27.036Z,38.00
2022-09-26T05:30:55.264Z,36.00
2022-09-26T05:33:23.349Z,35.00
2022-09-26T05:35:55.831Z,34.70
2022-09-26T05:38:23.782Z,36.70
2022-09-26T05:40:57.001Z,31.90
2022-09-26T05:43:31.793Z,32.40
2022-09-26T05:46:04.967Z,32.30
2022-09-26T05:48:39.165Z,30.60
2022-09-26T05:51:12.686Z,32.10
2022-09-26T05:53:45.824Z,32.80
2022-09-26T05:56:19.054Z,33.10
2022-09-26T05:59:10.980Z,31.90
2022-09-26T06:01:58.769Z,32.40
2022-09-26T06:04:45.129Z,33.20
2022-09-26T06:10:01.439Z,30.00
2022-09-26T06:12:35.934Z,32.40
2022-09-26T06:15:05.536Z,32.60
2022-09-26T06:17:34.681Z,34.10
2022-09-26T06:20:05.437Z,32.20
2022-09-26T06:22:43.897Z,30.50
2022-09-26T06:25:13.108Z,31.90
2022-09-26T06:27:42.594Z,30.30
2022-09-26T06:30:12.197Z,29.60
2022-09-26T06:32:41.458Z,28.70
2022-09-26T06:35:22.309Z,30.30
2022-09-26T06:38:08.985Z,30.60
2022-09-26T06:40:38.068Z,25.00
2022-09-26T06:43:06.740Z,28.50
2022-09-26T06:46:09.828Z,27.60
2022-09-26T06:49:10.327Z,25.50
2022-09-26T06:51:44.094Z,25.00
2022-09-26T06:54:12.117Z,24.80
2022-09-26T06:56:40.254Z,23.90
2022-09-26T06:59:08.751Z,23.90
2022-09-26T07:01:41.756Z,24.50
2022-09-26T07:04:30.774Z,23.30
2022-09-26T07:07:27.892Z,22.70
2022-09-26T07:09:56.650Z,22.30
2022-09-26T07:12:47.403Z,20.80
2022-09-26T07:15:21.065Z,22.70
2022-09-26T07:17:49.866Z,21.80
2022-09-26T07:20:34.676Z,20.40
2022-09-26T07:23:21.744Z,21.40
2022-09-26T07:25:51.137Z,23.90
2022-09-26T07:28:19.706Z,24.10
2022-09-26T07:30:49.851Z,22.20
2022-09-26T07:33:43.010Z,22.30
2022-09-26T07:36:12.881Z,22.40
2022-09-26T07:38:43.885Z,20.70
2022-09-26T07:41:12.334Z,21.10
2022-09-26T07:44:30.329Z,20.60
2022-09-26T07:46:50.032Z,22.00
2022-09-26T07:49:37.105Z,22.10
2022-09-26T07:52:11.421Z,20.70
2022-09-26T07:55:11.409Z,22.40
2022-09-26T07:57:59.334Z,21.80
2022-09-26T08:00:47.771Z,21.00
2022-09-26T08:03:48.425Z,21.40
2022-09-26T08:06:42.823Z,25.70
2022-09-26T08:09:11.564Z,24.10
2022-09-26T08:11:58.368Z,25.40
2022-09-26T08:14:49.922Z,23.40
2022-09-26T08:17:34.939Z,29.50
2022-09-26T08:20:04.356Z,29.20
2022-09-26T08:22:33.006Z,27.10
2022-09-26T08:25:01.515Z,22.60
2022-09-26T08:28:00.297Z,22.80
2022-09-26T08:30:31.463Z,21.70
2022-09-26T08:33:02.563Z,24.10
2022-09-26T08:35:35.786Z,24.20
2022-09-26T08:38:21.889Z,25.00
2022-09-26T08:41:32.546Z,24.30
2022-09-26T08:44:42.229Z,25.40
2022-09-26T08:47:43.861Z,24.40
2022-09-26T08:51:12.572Z,26.10
2022-09-26T08:54:05.827Z,24.80
2022-09-26T08:56:42.166Z,27.00
2022-09-26T08:59:43.619Z,26.00
2022-09-26T09:02:51.840Z,25.60
2022-09-26T09:05:28.477Z,24.20
2022-09-26T09:07:59.026Z,24.40
2022-09-26T09:10:54.752Z,22.40
2022-09-26T09:13:28.034Z,22.80
2022-09-26T09:16:37.163Z,24.10
2022-09-26T09:19:56.739Z,22.60
2022-09-26T09:23:02.462Z,21.80
2022-09-26T09:27:52.432Z,21.80
2022-09-26T09:29:23.596Z,19.70
2022-09-26T09:32:17.283Z,20.80
2022-09-26T09:35:18.422Z,20.20
2022-09-26T09:38:18.353Z,20.20
2022-09-26T09:41:03.672Z,18.50
2022-09-26T09:43:34.852Z,19.50
2022-09-26T09:46:13.069Z,20.70
2022-09-26T09:48:41.862Z,21.50
2022-09-26T09:51:44.653Z,22.60
2022-09-26T09:54:24.856Z,24.00
2022-09-26T09:56:56.056Z,22.30
2022-09-26T09:59:58.484Z,21.10
2022-09-26T10:03:20.379Z,18.60
2022-09-26T10:05:53.779Z,16.00
2022-09-26T10:08:33.250Z,16.20
2022-09-26T10:11:41.789Z,18.80
2022-09-26T10:14:45.394Z,22.20
2022-09-26T10:17:32.508Z,24.30
2022-09-26T10:20:53.173Z,24.80
2022-09-26T10:23:27.308Z,23.40
2022-09-26T10:26:02.513Z,23.80
2022-09-26T10:28:44.557Z,22.70
2022-09-26T10:31:26.331Z,23.50
2022-09-26T10:34:38.478Z,26.90
2022-09-26T10:37:29.093Z,27.20
2022-09-26T10:40:53.362Z,27.80
2022-09-26T10:43:32.847Z,26.10
2022-09-26T10:46:19.327Z,24.70
2022-09-26T10:49:15.753Z,25.60
2022-09-26T10:52:18.215Z,23.40
2022-09-26T10:55:11.557Z,19.80
2022-09-26T10:57:46.750Z,20.50
2022-09-26T11:00:22.141Z,19.50
2022-09-26T11:02:52.601Z,19.60
2022-09-26T11:05:42.691Z,18.00
2022-09-26T11:08:18.960Z,16.30
2022-09-26T11:11:11.402Z,15.80
2022-09-26T11:14:05.344Z,16.00
2022-09-26T11:16:43.545Z,18.70
2022-09-26T11:19:55.089Z,15.30
2022-09-26T11:22:42.302Z,18.40
2022-09-26T11:25:28.906Z,18.10
2022-09-26T11:28:34.525Z,20.10
2022-09-26T11:31:29.303Z,17.20
2022-09-26T11:34:27.836Z,17.30
2022-09-26T11:37:18.283Z,16.40
2022-09-26T11:40:10.126Z,14.90
2022-09-26T11:42:54.905Z,16.00
2022-09-26T11:45:53.556Z,16.20
2022-09-26T11:49:18.041Z,13.70
2022-09-26T11:52:17.884Z,15.00
2022-09-26T11:54:52.265Z,15.20
2022-09-26T11:57:49.775Z,14.50
2022-09-26T12:00:27.851Z,16.80
2022-09-26T12:03:15.140Z,14.00
2022-09-26T12:06:00.768Z,15.40
2022-09-26T12:08:54.135Z,14.90
2022-09-26T12:11:41.708Z,13.00
2022-09-26T12:14:53.929Z,13.40
2022-09-26T12:17:44.126Z,14.90
2022-09-26T12:20:30.600Z,13.60
2022-09-26T12:25:56.409Z,13.00
2022-09-26T12:28:25.623Z,12.90
2022-09-26T12:30:59.946Z,12.70
2022-09-26T12:33:43.582Z,11.40
2022-09-26T12:36:21.636Z,11.60
2022-09-26T12:38:58.632Z,10.60
2022-09-26T12:41:38.293Z,12.20
2022-09-26T12:44:27.388Z,12.90
2022-09-26T12:47:09.609Z,10.50
2022-09-26T12:49:45.135Z,11.90
2022-09-26T12:52:39.204Z,11.40
2022-09-26T12:55:38.706Z,10.90
2022-09-26T12:58:25.160Z,12.80
2022-09-26T13:03:55.520Z,12.90
2022-09-26T13:07:17.228Z,11.70
2022-09-26T13:10:07.762Z,13.10
2022-09-26T13:12:59.002Z,13.70
2022-09-26T13:15:32.516Z,13.50
2022-09-26T13:18:13.069Z,14.20
2022-09-26T13:20:50.176Z,14.30
2022-09-26T13:23:21.034Z,13.70
2022-09-26T13:25:53.091Z,11.00
2022-09-26T13:28:30.433Z,11.40
2022-09-26T13:31:05.615Z,12.70
2022-09-26T13:33:37.273Z,11.40
2022-09-26T13:36:08.872Z,12.50
2022-09-26T13:38:46.302Z,11.50
2022-09-26T13:41:32.907Z,12.20
2022-09-26T13:44:03.843Z,11.10
2022-09-26T13:47:03.445Z,12.80
2022-09-26T13:50:16.640Z,12.70
2022-09-26T13:53:06.895Z,12.50
2022-09-26T13:55:37.421Z,12.30
2022-09-26T13:58:19.498Z,11.50
2022-09-26T14:00:55.102Z,12.00
2022-09-26T14:03:23.533Z,11.10
2022-09-26T14:06:06.663Z,11.90
2022-09-26T14:08:55.527Z,12.10
2022-09-26T14:11:45.485Z,9.80
2022-09-26T14:14:19.553Z,10.00
2022-09-26T14:16:52.088Z,10.10
2022-09-26T14:19:31.966Z,9.90
2022-09-26T14:22:21.666Z,9.60
2022-09-26T14:24:51.602Z,9.80
2022-09-26T14:27:25.569Z,9.70
2022-09-26T14:30:01.199Z,8.60
2022-09-26T14:32:35.259Z,8.40
2022-09-26T14:35:16.656Z,9.50
2022-09-26T14:37:52.066Z,9.30
2022-09-26T14:40:39.991Z,8.20
2022-09-26T14:43:14.189Z,7.90
2022-09-26T14:45:52.862Z,8.30
2022-09-26T14:48:26.839Z,9.30
2022-09-26T14:51:07.135Z,8.80
2022-09-26T14:53:50.166Z,9.40
2022-09-26T14:56:27.750Z,9.40
2022-09-26T14:59:17.157Z,9.10
2022-09-26T15:01:46.370Z,8.40
2022-09-26T15:04:20.889Z,8.50
2022-09-26T15:06:53.096Z,8.40
2022-09-26T15:09:32.951Z,7.80
2022-09-26T15:12:09.131Z,8.60
2022-09-26T15:15:09.219Z,9.70
2022-09-26T15:17:45.968Z,8.00
2022-09-26T15:20:18.584Z,8.30
2022-09-26T15:22:48.115Z,9.60
2022-09-26T15:25:25.967Z,9.40
2022-09-26T15:27:55.553Z,9.10
2022-09-26T15:30:43.202Z,9.20
2022-09-26T15:33:20.419Z,9.70
2022-09-26T15:35:55.059Z,8.60
2022-09-26T15:38:25.259Z,9.30
2022-09-26T15:41:01.437Z,8.90
2022-09-26T15:43:35.046Z,9.10
2022-09-26T15:46:07.431Z,10.00
2022-09-26T15:48:43.246Z,9.70
2022-09-26T15:51:30.234Z,13.10
2022-09-26T15:54:03.813Z,16.90
2022-09-26T15:56:39.714Z,15.20
2022-09-26T15:59:13.995Z,13.30
2022-09-26T16:01:44.803Z,12.60
2022-09-26T16:04:33.389Z,11.60
2022-09-26T16:07:04.471Z,11.20
2022-09-26T16:09:44.492Z,11.60
2022-09-26T16:12:15.685Z,9.90
2022-09-26T16:15:05.345Z,10.40
2022-09-26T16:17:36.436Z,10.60
2022-09-26T16:20:13.760Z,11.60
2022-09-26T16:22:54.920Z,12.60
2022-09-26T16:25:30.140Z,11.10
2022-09-26T16:28:01.710Z,12.30
2022-09-26T16:30:30.278Z,13.00
2022-09-26T16:33:07.673Z,14.50
2022-09-26T16:35:43.349Z,15.00
2022-09-26T16:38:32.309Z,15.10
2022-09-26T16:41:31.391Z,15.00
2022-09-26T16:44:40.675Z,14.50
2022-09-26T16:47:34.429Z,13.80
2022-09-26T16:50:29.160Z,15.20
2022-09-26T16:52:58.106Z,20.40
2022-09-26T16:55:27.727Z,24.60
2022-09-26T16:57:59.193Z,23.10
2022-09-26T17:00:52.703Z,22.60
2022-09-26T17:03:23.971Z,21.90
2022-09-26T17:05:55.679Z,19.90
2022-09-26T17:08:26.595Z,21.60
2022-09-26T17:10:58.694Z,19.70
2022-09-26T17:13:29.108Z,21.30
2022-09-26T17:16:02.610Z,18.20
2022-09-26T17:18:33.380Z,18.20
2022-09-26T17:21:02.223Z,19.60
2022-09-26T17:23:40.648Z,19.00
2022-09-26T17:26:21.840Z,18.50
2022-09-26T17:28:53.431Z,21.20
2022-09-26T17:31:21.696Z,21.30
2022-09-26T17:33:53.393Z,24.30
2022-09-26T17:36:29.437Z,22.80
2022-09-26T17:39:02.563Z,23.00
2022-09-26T17:41:32.740Z,21.90
2022-09-26T17:44:01.139Z,22.80
2022-09-26T17:46:30.368Z,23.50
2022-09-26T17:48:59.534Z,20.60
2022-09-26T17:51:27.762Z,22.40
2022-09-26T17:53:57.496Z,23.30
2022-09-26T17:56:26.520Z,22.10
2022-09-26T17:58:55.869Z,22.20
2022-09-26T18:01:33.808Z,21.80
2022-09-26T18:04:07.396Z,20.90
2022-09-26T18:06:37.069Z,20.90
2022-09-26T18:09:10.072Z,20.00
2022-09-26T18:11:38.907Z,19.60
2022-09-26T18:14:08.668Z,19.50
2022-09-26T18:16:36.911Z,19.80
2022-09-26T18:19:07.555Z,19.00
2022-09-26T18:21:36.762Z,20.90
2022-09-26T18:24:06.840Z,19.60
2022-09-26T18:26:42.316Z,19.70
2022-09-26T18:29:15.369Z,20.60
2022-09-26T18:31:46.013Z,24.10
2022-09-26T18:34:18.783Z,23.30
2022-09-26T18:36:48.277Z,22.50
2022-09-26T18:39:17.074Z,23.50
2022-09-26T18:41:46.086Z,24.70
2022-09-26T18:44:17.927Z,23.90
2022-09-26T18:46:48.341Z,22.40
2022-09-26T18:49:17.620Z,21.70
2022-09-26T18:51:47.092Z,23.00
2022-09-26T18:54:17.362Z,22.40
2022-09-26T18:57:04.473Z,21.10
2022-09-26T18:59:32.638Z,23.10
2022-09-26T19:02:02.712Z,24.00
2022-09-26T19:04:31.872Z,22.40
2022-09-26T19:07:02.404Z,19.90
2022-09-26T19:09:35.774Z,20.90
2022-09-26T19:12:04.300Z,22.80
2022-09-26T19:14:32.809Z,24.90
2022-09-26T19:17:00.962Z,25.30
2022-09-26T19:19:30.485Z,21.60
2022-09-26T19:22:15.226Z,21.90
2022-09-26T19:25:10.320Z,22.40
2022-09-26T19:27:52.167Z,23.00
2022-09-26T19:30:22.355Z,24.30
2022-09-26T19:32:53.207Z,26.10
2022-09-26T19:35:35.424Z,26.40
2022-09-26T19:38:06.618Z,28.30
2022-09-26T19:40:34.912Z,31.60
2022-09-26T19:43:04.661Z,34.90
2022-09-26T19:45:35.068Z,31.60
2022-09-26T19:48:05.448Z,27.70
2022-09-26T19:50:35.662Z,29.50
2022-09-26T19:53:13.470Z,29.70
2022-09-26T19:55:42.210Z,30.70
2022-09-26T19:58:16.861Z,28.40
2022-09-26T20:00:49.735Z,30.00
2022-09-26T20:03:43.004Z,29.20
2022-09-26T20:06:29.396Z,29.60
2022-09-26T20:11:30.481Z,27.00
2022-09-26T20:14:17.361Z,25.20
2022-09-26T20:16:45.600Z,25.10
2022-09-26T20:19:24.680Z,30.50
2022-09-26T20:21:53.336Z,31.70
2022-09-26T20:24:21.583Z,34.30
2022-09-26T20:26:49.791Z,33.70
2022-09-26T20:29:17.874Z,35.90
2022-09-26T20:31:47.648Z,33.10
2022-09-26T20:34:17.353Z,31.30
2022-09-26T20:36:49.327Z,28.60
2022-09-26T20:39:23.922Z,28.00
2022-09-26T20:41:52.737Z,27.40
2022-09-26T20:44:30.324Z,25.00
2022-09-26T20:47:00.158Z,25.10
2022-09-26T20:49:40.452Z,26.50
2022-09-26T20:52:19.342Z,25.20
2022-09-26T20:54:47.640Z,24.30
2022-09-26T20:57:17.517Z,23.80
2022-09-26T20:59:47.065Z,24.60
2022-09-26T21:02:31.049Z,22.40
2022-09-26T21:05:03.409Z,21.90
2022-09-26T21:07:32.253Z,20.80
2022-09-26T21:10:00.434Z,20.60
2022-09-26T21:12:28.682Z,25.70
2022-09-26T21:14:56.731Z,24.60
2022-09-26T21:17:29.355Z,25.70
2022-09-26T21:19:58.074Z,24.10
2022-09-26T21:22:52.781Z,23.20
2022-09-26T21:25:23.201Z,24.30
2022-09-26T21:27:55.889Z,22.80
2022-09-26T21:30:24.247Z,21.90
2022-09-26T21:32:56.785Z,20.50
2022-09-26T21:35:31.306Z,19.80
2022-09-26T21:38:01.331Z,18.90
2022-09-26T21:40:32.080Z,19.10
2022-09-26T21:43:07.655Z,19.30
2022-09-26T21:45:35.689Z,18.90
2022-09-26T21:48:03.860Z,18.50
2022-09-26T21:50:32.254Z,19.20
2022-09-26T21:53:05.803Z,20.00
2022-09-26T21:55:38.818Z,20.20
2022-09-26T21:58:15.311Z,19.90
2022-09-26T22:00:43.370Z,20.80
2022-09-26T22:03:11.605Z,20.40
2022-09-26T22:05:39.705Z,21.80
2022-09-26T22:08:07.702Z,20.50
2022-09-26T22:10:36.962Z,23.90
2022-09-26T22:13:05.595Z,21.00
2022-09-26T22:15:33.681Z,22.50
2022-09-26T22:18:02.127Z,21.50
2022-09-26T22:20:30.361Z,19.90
2022-09-26T22:22:58.434Z,22.40
2022-09-26T22:25:26.612Z,23.00
2022-09-26T22:27:54.636Z,22.40
2022-09-26T22:30:22.816Z,22.70
2022-09-26T22:32:50.958Z,23.50
2022-09-26T22:35:19.020Z,23.50
2022-09-26T22:37:47.341Z,21.20
2022-09-26T22:40:15.453Z,23.30
2022-09-26T22:42:43.588Z,23.80
2022-09-26T22:45:11.630Z,24.10
2022-09-26T22:47:39.773Z,26.40
2022-09-26T22:50:08.275Z,25.90
2022-09-26T22:52:36.417Z,27.00
2022-09-26T22:55:05.008Z,25.90
2022-09-26T22:57:33.170Z,26.30
2022-09-26T23:00:02.028Z,26.20
2022-09-26T23:02:30.160Z,25.70
2022-09-26T23:04:58.273Z,26.30
2022-09-26T23:07:26.368Z,25.70
2022-09-26T23:09:54.527Z,24.80
2022-09-26T23:12:22.683Z,25.10
2022-09-26T23:14:50.702Z,24.50
2022-09-26T23:17:18.763Z,25.50
2022-09-26T23:19:46.953Z,25.90
2022-09-26T23:22:15.685Z,25.30
2022-09-26T23:24:43.796Z,26.50
2022-09-26T23:27:11.824Z,26.40
2022-09-26T23:29:40.386Z,26.80
2022-09-26T23:32:08.531Z,26.30
2022-09-26T23:34:36.593Z,25.10
2022-09-26T23:37:04.654Z,25.80
2022-09-26T23:39:32.783Z,26.60
2022-09-26T23:42:00.891Z,27.60
2022-09-26T23:44:28.944Z,26.80
2022-09-26T23:47:00.132Z,28.80
2022-09-26T23:49:29.001Z,29.30
2022-09-26T23:51:56.993Z,28.90
2022-09-26T23:54:25.055Z,29.80
2022-09-26T23:56:53.203Z,29.90
2022-09-26T23:59:21.311Z,30.00
